Time;durP1;ratioP1;P1;durP2;ratioP2;P2;SDS_P1;SDS_P2;PMS_P1;PMS_P2;Temp;Humidity;BMP_temperature;BMP_pressure;BME280_temperature;BME280_humidity;BME280_pressure;Samples;Min_cycle;Max_cycle;Signal;HPM_P1;HPM_P2
2023/11/18 00:02:16;;;;;;;2.37;2.10;;;21.30;57.70;;;;;;5054047;28;20198;-68
2023/11/18 00:04:42;;;;;;;2.70;1.83;;;21.30;57.80;;;;;;5054601;28;20175;-69
2023/11/18 00:07:07;;;;;;;1.90;1.70;;;21.20;57.70;;;;;;5054347;28;20194;-68
2023/11/18 00:09:33;;;;;;;1.97;1.53;;;21.20;57.70;;;;;;5054008;28;20175;-69
2023/11/18 00:11:58;;;;;;;2.93;2.00;;;21.20;57.70;;;;;;5054254;28;20183;-69
2023/11/18 00:14:24;;;;;;;5.40;1.97;;;21.20;57.70;;;;;;5054014;28;20175;-68
2023/11/18 00:16:50;;;;;;;2.27;1.90;;;21.20;57.70;;;;;;5053820;28;20198;-68
2023/11/18 00:19:15;;;;;;;2.10;1.70;;;21.20;57.70;;;;;;5054049;28;20676;-70
2023/11/18 00:21:42;;;;;;;1.70;1.57;;;21.20;57.70;;;;;;5053871;28;20265;-69
2023/11/18 00:24:08;;;;;;;2.43;1.80;;;21.20;57.70;;;;;;5052389;28;20175;-69
2023/11/18 00:26:34;;;;;;;2.40;1.97;;;21.20;57.80;;;;;;5054080;28;20425;-69
2023/11/18 00:29:00;;;;;;;2.87;2.07;;;21.20;57.80;;;;;;5053802;28;20410;-68
2023/11/18 00:31:27;;;;;;;1.67;1.57;;;21.20;57.80;;;;;;5054181;28;20267;-69
2023/11/18 00:33:52;;;;;;;2.00;1.70;;;21.20;57.80;;;;;;5053743;28;20428;-69
2023/11/18 00:36:18;;;;;;;2.00;1.77;;;21.20;57.80;;;;;;5053413;28;20430;-70
2023/11/18 00:38:44;;;;;;;2.03;1.80;;;21.20;57.80;;;;;;5053579;28;20707;-69
2023/11/18 00:41:09;;;;;;;2.03;1.83;;;21.20;57.80;;;;;;5053746;28;20206;-68
2023/11/18 00:43:35;;;;;;;2.43;1.80;;;21.20;57.80;;;;;;5053780;28;20178;-69
2023/11/18 00:46:03;;;;;;;2.27;2.07;;;21.10;57.70;;;;;;5053727;28;20262;-69
2023/11/18 00:48:28;;;;;;;2.27;2.07;;;21.10;57.70;;;;;;5053979;28;20882;-70
2023/11/18 00:50:55;;;;;;;1.63;1.50;;;21.10;57.70;;;;;;5053400;28;20410;-70
2023/11/18 00:53:22;;;;;;;2.13;1.93;;;21.10;57.70;;;;;;5052969;28;20612;-70
2023/11/18 00:55:47;;;;;;;2.40;1.67;;;21.10;57.80;;;;;;5052806;28;20920;-70
2023/11/18 00:58:13;;;;;;;2.40;2.10;;;21.10;57.80;;;;;;5053475;28;20516;-70
2023/11/18 01:00:39;;;;;;;1.60;1.50;;;21.20;57.90;;;;;;5053216;28;20179;-70
2023/11/18 01:03:04;;;;;;;2.80;2.17;;;21.10;57.80;;;;;;5053297;28;20202;-69
2023/11/18 01:05:31;;;;;;;2.60;1.97;;;21.10;57.80;;;;;;5053281;28;20243;-70
2023/11/18 01:07:57;;;;;;;2.33;2.13;;;21.10;57.80;;;;;;5053595;28;20167;-70
2023/11/18 01:10:23;;;;;;;2.50;1.97;;;21.10;57.80;;;;;;5053170;28;20444;-69
2023/11/18 01:12:48;;;;;;;2.13;1.70;;;21.10;57.80;;;;;;5053192;28;20441;-68
2023/11/18 01:15:14;;;;;;;2.00;1.83;;;21.10;57.80;;;;;;5052965;28;20689;-69
2023/11/18 01:17:40;;;;;;;2.43;1.77;;;21.10;57.80;;;;;;5053258;28;20206;-69
2023/11/18 01:20:10;;;;;;;1.90;1.70;;;21.10;57.80;;;;;;5053171;28;20213;-69
2023/11/18 01:22:37;;;;;;;1.90;1.80;;;21.10;57.80;;;;;;5053065;28;20191;-69
2023/11/18 01:25:05;;;;;;;1.90;1.47;;;21.10;57.80;;;;;;5052779;28;20502;-69
2023/11/18 01:27:30;;;;;;;1.73;1.40;;;21.10;57.80;;;;;;5052840;28;20433;-68
2023/11/18 01:29:56;;;;;;;1.80;1.70;;;21.10;57.80;;;;;;5052947;28;20467;-68
2023/11/18 01:32:21;;;;;;;2.20;2.00;;;21.10;57.80;;;;;;5053211;28;20203;-70
2023/11/18 01:34:50;;;;;;;2.20;1.70;;;21.10;57.80;;;;;;5052852;28;20182;-69
2023/11/18 01:37:21;;;;;;;2.17;1.97;;;21.10;57.80;;;;;;5053104;28;20194;-70
2023/11/18 01:39:47;;;;;;;1.90;1.67;;;21.10;57.80;;;;;;5052711;28;20421;-69
2023/11/18 01:42:12;;;;;;;1.83;1.70;;;21.10;57.80;;;;;;5052196;28;20831;-69
2023/11/18 01:44:38;;;;;;;1.77;1.60;;;21.10;57.80;;;;;;5052405;28;20190;-70
2023/11/18 01:47:06;;;;;;;2.60;1.70;;;21.10;57.80;;;;;;5052389;28;20693;-70
2023/11/18 01:49:37;;;;;;;2.47;2.07;;;21.10;57.90;;;;;;5052480;28;20662;-68
2023/11/18 01:52:02;;;;;;;2.00;1.80;;;21.00;57.80;;;;;;5052573;28;20401;-70
2023/11/18 01:54:29;;;;;;;1.53;1.30;;;21.10;57.90;;;;;;5052106;28;20500;-70
2023/11/18 01:56:55;;;;;;;1.70;1.60;;;21.00;57.80;;;;;;5052186;28;20432;-70
2023/11/18 01:59:20;;;;;;;2.17;1.87;;;21.00;57.80;;;;;;5052035;28;20512;-69
2023/11/18 02:01:52;;;;;;;2.07;1.87;;;21.00;58.30;;;;;;5052151;28;20202;-70
2023/11/18 02:04:19;;;;;;;2.17;1.70;;;21.10;57.90;;;;;;5051983;28;20158;-70
2023/11/18 02:06:47;;;;;;;2.43;1.70;;;21.00;57.80;;;;;;5051740;28;20433;-70
2023/11/18 02:09:17;;;;;;;1.63;1.43;;;21.00;57.80;;;;;;5052059;28;20409;-70
2023/11/18 02:12:11;;;;;;;2.27;1.73;;;21.00;57.80;;;;;;5052268;28;20449;-70
2023/11/18 02:14:39;;;;;;;1.70;1.47;;;21.00;57.80;;;;;;5052194;28;20483;-69
2023/11/18 02:17:06;;;;;;;2.60;1.90;;;21.00;57.90;;;;;;5051799;28;20521;-69
2023/11/18 02:19:32;;;;;;;2.07;1.87;;;21.00;57.80;;;;;;5052224;28;20885;-69
2023/11/18 02:22:00;;;;;;;1.90;1.70;;;21.00;57.80;;;;;;5051828;28;20453;-70
2023/11/18 02:24:40;;;;;;;1.80;1.40;;;21.00;57.90;;;;;;5052152;28;20409;-67
2023/11/18 02:27:07;;;;;;;2.30;1.83;;;21.00;57.80;;;;;;5052589;28;20838;-70
2023/11/18 02:29:39;;;;;;;2.40;2.00;;;21.00;57.90;;;;;;5052067;28;20463;-68
2023/11/18 02:32:23;;;;;;;2.30;2.00;;;21.00;57.90;;;;;;5052302;28;20394;-68
2023/11/18 02:34:58;;;;;;;2.20;1.70;;;21.00;58.10;;;;;;5051081;28;20413;-69
2023/11/18 02:37:25;;;;;;;2.20;1.90;;;21.00;57.90;;;;;;5052914;28;20440;-70
2023/11/18 02:39:57;;;;;;;2.77;2.10;;;21.00;57.90;;;;;;5053026;28;20424;-69
2023/11/18 02:42:24;;;;;;;1.83;1.53;;;21.00;57.90;;;;;;5052925;28;20535;-70
2023/11/18 02:44:58;;;;;;;2.53;1.63;;;21.00;57.90;;;;;;5052692;28;20406;-69
2023/11/18 02:47:25;;;;;;;1.80;1.70;;;21.00;57.90;;;;;;5052465;28;20425;-69
2023/11/18 02:49:56;;;;;;;1.97;1.53;;;21.00;57.90;;;;;;5052661;28;20833;-69
2023/11/18 02:52:22;;;;;;;2.13;1.93;;;21.00;57.90;;;;;;5052417;28;20390;-69
2023/11/18 02:54:48;;;;;;;1.93;1.60;;;21.00;57.90;;;;;;5052227;28;20394;-69
2023/11/18 02:57:13;;;;;;;1.77;1.47;;;21.00;57.90;;;;;;5052385;28;20802;-70
2023/11/18 02:59:39;;;;;;;2.33;2.13;;;21.00;57.90;;;;;;5052256;28;20179;-70
2023/11/18 03:02:06;;;;;;;2.33;1.70;;;21.00;57.90;;;;;;5052243;28;20202;-67
2023/11/18 03:04:31;;;;;;;1.90;1.70;;;21.00;57.90;;;;;;5051875;28;20174;-69
2023/11/18 03:06:57;;;;;;;3.60;1.57;;;21.00;57.90;;;;;;5052086;28;20425;-69
2023/11/18 03:09:27;;;;;;;1.57;1.47;;;21.00;57.90;;;;;;5052690;28;20256;-70
2023/11/18 03:11:54;;;;;;;2.10;1.90;;;21.00;57.80;;;;;;5052547;28;20823;-70
2023/11/18 03:14:20;;;;;;;2.40;2.17;;;21.00;57.90;;;;;;5052643;28;20822;-70
2023/11/18 03:16:46;;;;;;;1.80;1.50;;;21.00;57.90;;;;;;5052350;28;20438;-69
2023/11/18 03:19:13;;;;;;;2.30;2.03;;;21.00;57.90;;;;;;5056656;28;20278;-68
2023/11/18 03:21:39;;;;;;;1.77;1.60;;;21.00;57.90;;;;;;5056402;28;20217;-70
2023/11/18 03:24:05;;;;;;;1.93;1.70;;;21.00;57.90;;;;;;5055357;28;20421;-67
2023/11/18 03:26:32;;;;;;;2.50;1.57;;;21.00;57.80;;;;;;5056341;28;20199;-69
2023/11/18 03:28:57;;;;;;;2.07;1.40;;;21.00;57.90;;;;;;5056953;28;20770;-69
2023/11/18 03:31:23;;;;;;;2.20;1.63;;;20.90;57.80;;;;;;5056326;28;20512;-69
2023/11/18 03:33:48;;;;;;;2.10;1.90;;;21.00;57.90;;;;;;5056090;28;20171;-69
2023/11/18 03:36:17;;;;;;;1.93;1.73;;;21.00;57.90;;;;;;5056085;28;20202;-69
2023/11/18 03:38:43;;;;;;;2.40;2.10;;;20.90;57.80;;;;;;5054735;28;20178;-69
2023/11/18 03:41:08;;;;;;;2.33;1.70;;;20.90;57.80;;;;;;5035841;28;20980;-69
2023/11/18 03:43:34;;;;;;;2.03;1.60;;;20.90;57.80;;;;;;5036274;28;20187;-70
2023/11/18 03:46:00;;;;;;;2.20;1.90;;;20.90;57.80;;;;;;5033561;28;20813;-69
2023/11/18 03:48:26;;;;;;;1.93;1.40;;;20.90;57.80;;;;;;5035205;28;20175;-69
2023/11/18 03:50:51;;;;;;;2.47;1.60;;;20.90;57.80;;;;;;5035342;28;20179;-69
2023/11/18 03:53:17;;;;;;;1.70;1.60;;;20.90;57.80;;;;;;5034991;28;20264;-69
2023/11/18 03:55:42;;;;;;;3.17;1.90;;;20.90;57.90;;;;;;5034914;28;20761;-68
2023/11/18 03:58:08;;;;;;;3.10;2.23;;;20.90;57.90;;;;;;5035399;28;20195;-69
2023/11/18 04:00:34;;;;;;;2.97;2.00;;;20.90;57.90;;;;;;5035232;28;20179;-70
2023/11/18 04:03:00;;;;;;;3.63;1.70;;;20.90;57.90;;;;;;5034995;28;20919;-69
2023/11/18 04:05:25;;;;;;;2.30;2.00;;;20.90;58.50;;;;;;5035058;28;20183;-69
2023/11/18 04:07:51;;;;;;;2.37;1.93;;;20.90;57.90;;;;;;5034754;28;20241;-69
2023/11/18 04:10:18;;;;;;;1.97;1.77;;;20.90;57.90;;;;;;5034912;28;20183;-68
2023/11/18 04:12:46;;;;;;;2.40;1.60;;;20.90;57.90;;;;;;5034679;28;20446;-68
2023/11/18 04:15:13;;;;;;;4.43;1.93;;;20.80;57.90;;;;;;5034916;28;20425;-69
2023/11/18 04:17:39;;;;;;;2.70;1.80;;;20.80;57.90;;;;;;5034442;28;20458;-69
2023/11/18 04:20:10;;;;;;;3.13;1.83;;;20.90;58.00;;;;;;5034348;28;20818;-69
2023/11/18 04:22:41;;;;;;;6.13;2.27;;;20.80;57.90;;;;;;5034498;28;20458;-70
2023/11/18 04:25:10;;;;;;;2.23;1.80;;;20.80;57.90;;;;;;5034791;28;20463;-69
2023/11/18 04:27:35;;;;;;;3.50;2.00;;;20.90;58.00;;;;;;5034270;28;20426;-67
2023/11/18 04:30:01;;;;;;;5.30;1.83;;;20.80;57.90;;;;;;5033995;28;20781;-69
2023/11/18 04:32:27;;;;;;;4.30;1.90;;;20.80;57.90;;;;;;5034588;28;20782;-70
2023/11/18 04:34:52;;;;;;;2.30;1.70;;;20.80;57.90;;;;;;5034108;28;20513;-69
2023/11/18 04:37:18;;;;;;;3.30;2.10;;;20.80;57.90;;;;;;5034063;28;20593;-70
2023/11/18 04:39:44;;;;;;;2.03;1.63;;;20.80;57.90;;;;;;5034135;28;20179;-69
2023/11/18 04:42:09;;;;;;;3.60;1.83;;;20.80;58.00;;;;;;5033929;28;20290;-69
2023/11/18 04:44:35;;;;;;;2.97;1.90;;;20.80;57.90;;;;;;5033956;28;20218;-69
2023/11/18 04:47:01;;;;;;;3.10;2.07;;;20.80;58.00;;;;;;5033823;28;20188;-68
2023/11/18 04:49:27;;;;;;;3.27;2.00;;;20.80;57.90;;;;;;5034364;28;20170;-68
2023/11/18 04:51:52;;;;;;;5.63;2.00;;;20.80;57.90;;;;;;5034233;28;20415;-69
2023/11/18 04:54:19;;;;;;;2.67;1.97;;;20.80;58.00;;;;;;5034042;28;20187;-68
2023/11/18 04:56:45;;;;;;;2.40;1.80;;;20.80;57.90;;;;;;5033958;28;20203;-69
2023/11/18 04:59:10;;;;;;;2.20;2.00;;;20.80;58.00;;;;;;5033694;28;20464;-69
2023/11/18 05:01:37;;;;;;;4.70;2.30;;;20.80;57.90;;;;;;5033362;28;20286;-70
2023/11/18 05:04:03;;;;;;;3.20;1.87;;;20.80;57.90;;;;;;5032402;28;20176;-70
2023/11/18 05:06:29;;;;;;;2.03;1.63;;;20.80;57.90;;;;;;5033423;28;20537;-68
2023/11/18 05:08:55;;;;;;;2.93;1.77;;;20.80;57.90;;;;;;5033506;28;20485;-69
2023/11/18 05:11:20;;;;;;;2.00;1.60;;;20.80;58.00;;;;;;5033651;28;20623;-69
2023/11/18 05:13:46;;;;;;;2.40;1.90;;;20.80;57.90;;;;;;5032274;28;20222;-69
2023/11/18 05:16:11;;;;;;;3.00;1.67;;;20.80;57.90;;;;;;5033342;28;20237;-68
2023/11/18 05:18:38;;;;;;;2.20;1.60;;;20.80;58.00;;;;;;5033045;28;20219;-69
2023/11/18 05:21:07;;;;;;;1.50;1.20;;;20.80;58.00;;;;;;5033190;28;20171;-69
2023/11/18 05:23:36;;;;;;;2.10;1.90;;;20.80;58.00;;;;;;5033329;28;20516;-70
2023/11/18 05:26:04;;;;;;;2.30;1.63;;;20.80;57.90;;;;;;5032951;28;20433;-69
2023/11/18 05:28:30;;;;;;;2.30;1.60;;;20.70;57.90;;;;;;5033081;28;20414;-70
2023/11/18 05:30:58;;;;;;;2.07;1.70;;;20.80;58.00;;;;;;5032789;28;20406;-68
2023/11/18 05:33:23;;;;;;;1.80;1.50;;;20.70;57.90;;;;;;5033138;28;20188;-69
2023/11/18 05:35:49;;;;;;;3.00;2.10;;;20.70;57.90;;;;;;5032654;28;20521;-69
2023/11/18 05:38:21;;;;;;;3.13;1.97;;;20.70;57.90;;;;;;5032774;28;20224;-69
2023/11/18 05:40:56;;;;;;;2.33;1.83;;;20.80;58.00;;;;;;5032129;28;20591;-68
2023/11/18 05:43:36;;;;;;;2.27;1.53;;;20.80;58.00;;;;;;5032789;28;20863;-69
2023/11/18 05:46:25;;;;;;;3.50;1.60;;;20.70;57.90;;;;;;5032599;28;20434;-69
2023/11/18 05:48:52;;;;;;;1.70;1.43;;;20.70;58.00;;;;;;5032754;28;20436;-68
2023/11/18 05:51:26;;;;;;;2.40;1.90;;;20.70;58.00;;;;;;5032726;28;20502;-67
2023/11/18 05:53:52;;;;;;;2.70;1.60;;;20.70;58.00;;;;;;5031402;28;20465;-69
2023/11/18 05:56:19;;;;;;;2.17;1.77;;;20.70;58.00;;;;;;5032355;28;21005;-70
2023/11/18 05:58:45;;;;;;;2.43;1.80;;;20.80;58.10;;;;;;5032511;28;20796;-68
2023/11/18 06:01:12;;;;;;;2.53;1.80;;;20.70;58.00;;;;;;5032105;28;20464;-67
2023/11/18 06:03:38;;;;;;;2.90;2.10;;;20.70;58.00;;;;;;5032227;28;20414;-69
2023/11/18 06:06:12;;;;;;;2.83;1.80;;;20.70;58.00;;;;;;5031795;28;20435;-68
2023/11/18 06:08:41;;;;;;;1.67;1.43;;;20.80;58.10;;;;;;5032528;28;20505;-69
2023/11/18 06:11:14;;;;;;;3.37;1.60;;;20.70;58.00;;;;;;5032527;28;20410;-69
2023/11/18 06:13:46;;;;;;;2.10;1.80;;;20.80;58.10;;;;;;5032635;28;20421;-69
2023/11/18 06:16:15;;;;;;;2.80;1.50;;;20.70;58.00;;;;;;5032353;28;20449;-68
2023/11/18 06:18:44;;;;;;;2.37;2.00;;;20.80;58.00;;;;;;5031826;28;20449;-69
2023/11/18 06:21:18;;;;;;;1.73;1.50;;;20.80;58.00;;;;;;5032132;28;20472;-68
2023/11/18 06:23:45;;;;;;;2.63;1.63;;;20.70;57.90;;;;;;5032436;28;20517;-70
2023/11/18 06:26:11;;;;;;;1.80;1.40;;;20.80;58.00;;;;;;5032037;28;20434;-69
2023/11/18 06:28:40;;;;;;;2.07;1.63;;;20.80;58.00;;;;;;5032278;28;20484;-69
2023/11/18 06:31:08;;;;;;;3.00;1.93;;;20.80;58.00;;;;;;5031662;28;20764;-69
2023/11/18 06:33:37;;;;;;;1.80;1.67;;;20.70;57.90;;;;;;5031918;28;20513;-69
2023/11/18 06:36:04;;;;;;;3.00;1.90;;;20.80;58.50;;;;;;5031791;28;20492;-68
2023/11/18 06:38:30;;;;;;;1.50;1.30;;;20.70;57.90;;;;;;5031743;28;20989;-69
2023/11/18 06:40:58;;;;;;;2.50;1.70;;;20.70;57.90;;;;;;5031866;28;20530;-69
2023/11/18 06:43:25;;;;;;;2.13;1.80;;;20.70;57.90;;;;;;5031683;28;20200;-69
2023/11/18 06:45:51;;;;;;;2.03;1.57;;;20.70;57.90;;;;;;5031852;28;20499;-69
2023/11/18 06:48:19;;;;;;;2.17;1.50;;;20.70;57.90;;;;;;5041145;28;20531;-67
2023/11/18 06:50:47;;;;;;;2.00;1.60;;;20.70;58.50;;;;;;5049811;28;20854;-71
2023/11/18 06:53:12;;;;;;;2.00;1.80;;;20.70;57.90;;;;;;5050388;28;20450;-70
2023/11/18 06:55:38;;;;;;;2.77;1.90;;;20.70;57.90;;;;;;5051242;28;20409;-69
2023/11/18 06:58:03;;;;;;;3.03;2.30;;;20.70;57.90;;;;;;5051575;28;20257;-68
2023/11/18 07:00:29;;;;;;;1.90;1.60;;;20.70;58.50;;;;;;5051316;28;20189;-69
2023/11/18 07:02:55;;;;;;;2.93;1.70;;;20.70;57.90;;;;;;5051369;28;20203;-70
2023/11/18 07:05:23;;;;;;;2.83;2.53;;;20.70;57.90;;;;;;5051958;28;20182;-68
2023/11/18 07:07:52;;;;;;;1.90;1.50;;;20.70;57.90;;;;;;5051514;28;20459;-69
2023/11/18 07:10:20;;;;;;;2.57;1.60;;;20.70;57.90;;;;;;5051240;28;20916;-66
2023/11/18 07:12:47;;;;;;;3.33;1.50;;;20.70;57.90;;;;;;5049722;28;20508;-69
2023/11/18 07:15:14;;;;;;;1.90;1.70;;;20.80;58.00;;;;;;5045495;28;20414;-69
2023/11/18 07:17:42;;;;;;;2.03;1.83;;;20.80;58.00;;;;;;5051303;28;21111;-69
2023/11/18 07:20:12;;;;;;;2.07;1.87;;;20.80;58.00;;;;;;5051315;28;20397;-69
2023/11/18 07:22:37;;;;;;;2.17;1.50;;;20.80;58.00;;;;;;5050132;28;20465;-68
2023/11/18 07:25:03;;;;;;;1.33;1.20;;;20.80;58.00;;;;;;5051380;28;20768;-69
2023/11/18 07:27:29;;;;;;;2.03;1.60;;;20.90;58.00;;;;;;5050831;28;20191;-69
2023/11/18 07:29:57;;;;;;;1.70;1.27;;;20.80;57.90;;;;;;5050976;28;20408;-68
2023/11/18 07:32:23;;;;;;;1.60;1.33;;;20.90;58.00;;;;;;5050860;28;20171;-68
2023/11/18 07:34:49;;;;;;;1.67;1.47;;;20.90;58.00;;;;;;5050788;28;20504;-69
2023/11/18 07:37:14;;;;;;;1.90;1.70;;;20.90;58.00;;;;;;5051077;28;20252;-68
2023/11/18 07:39:48;;;;;;;2.57;1.50;;;20.90;57.90;;;;;;5051064;28;20167;-68
2023/11/18 07:42:15;;;;;;;1.97;1.60;;;20.90;58.00;;;;;;5051084;28;20190;-70
2023/11/18 07:44:41;;;;;;;1.70;1.60;;;20.90;57.90;;;;;;5051392;28;20408;-68
2023/11/18 07:47:06;;;;;;;2.13;1.93;;;20.90;57.90;;;;;;5050686;28;20437;-70
2023/11/18 07:49:35;;;;;;;2.80;2.10;;;20.90;57.90;;;;;;5049371;28;20199;-69
2023/11/18 07:52:03;;;;;;;2.17;1.50;;;20.90;57.90;;;;;;5049178;28;20952;-69
2023/11/18 07:54:29;;;;;;;3.50;1.80;;;20.90;57.90;;;;;;5049524;28;20854;-68
2023/11/18 07:56:55;;;;;;;4.30;3.73;;;20.90;57.90;;;;;;5050644;28;20429;-69
2023/11/18 07:59:21;;;;;;;4.20;3.80;;;20.90;57.70;;;;;;5050728;28;20190;-67
2023/11/18 08:01:47;;;;;;;5.00;4.17;;;20.90;57.40;;;;;;5050359;28;20636;-68
2023/11/18 08:04:13;;;;;;;3.50;3.10;;;20.90;57.20;;;;;;5052497;28;21079;-69
2023/11/18 08:06:40;;;;;;;7.30;3.40;;;20.90;57.30;;;;;;5054258;28;20191;-69
2023/11/18 08:09:13;;;;;;;3.80;3.30;;;20.90;57.80;;;;;;5053999;28;20456;-69
2023/11/18 08:11:41;;;;;;;3.83;2.73;;;20.90;57.30;;;;;;5054247;28;20463;-69
2023/11/18 08:14:09;;;;;;;3.10;2.80;;;20.90;57.30;;;;;;5054362;28;20512;-70
2023/11/18 08:16:35;;;;;;;3.20;2.90;;;20.90;57.40;;;;;;5054217;28;20928;-69
2023/11/18 08:19:07;;;;;;;5.10;2.73;;;20.90;57.40;;;;;;5053494;28;20924;-69
2023/11/18 08:21:39;;;;;;;2.73;2.33;;;20.90;57.40;;;;;;5053880;28;20394;-69
2023/11/18 08:24:07;;;;;;;3.27;2.50;;;20.90;57.30;;;;;;5054075;28;20389;-69
2023/11/18 08:26:34;;;;;;;5.37;2.70;;;20.90;57.30;;;;;;5053686;28;20421;-69
2023/11/18 08:29:00;;;;;;;3.00;2.30;;;20.90;57.30;;;;;;5053822;28;20433;-68
2023/11/18 08:31:26;;;;;;;3.10;2.57;;;20.90;57.30;;;;;;5053996;28;20409;-69
2023/11/18 08:33:54;;;;;;;2.43;2.23;;;20.90;57.40;;;;;;5053455;28;20962;-69
2023/11/18 08:36:20;;;;;;;2.97;2.70;;;20.90;57.40;;;;;;5053459;28;20274;-68
2023/11/18 08:38:47;;;;;;;3.73;2.27;;;20.90;57.40;;;;;;5053447;28;20480;-69
2023/11/18 08:41:12;;;;;;;4.03;2.77;;;20.90;57.40;;;;;;5053898;28;20463;-69
2023/11/18 08:43:40;;;;;;;2.90;2.43;;;20.90;57.40;;;;;;5051897;28;20477;-68
2023/11/18 08:46:07;;;;;;;3.33;2.53;;;20.90;57.40;;;;;;5053612;28;20186;-65
2023/11/18 08:48:33;;;;;;;3.03;2.57;;;20.90;57.40;;;;;;5053997;28;20798;-68
2023/11/18 08:51:01;;;;;;;2.57;2.37;;;20.90;57.40;;;;;;5053526;28;20409;-69
2023/11/18 08:53:27;;;;;;;3.30;2.77;;;20.90;57.40;;;;;;5053799;28;20892;-68
2023/11/18 08:55:56;;;;;;;3.80;2.43;;;20.90;57.50;;;;;;5053330;28;20429;-70
2023/11/18 08:58:22;;;;;;;3.30;3.00;;;20.90;57.40;;;;;;5053286;28;20430;-69
2023/11/18 09:01:03;;;;;;;4.63;2.80;;;20.90;57.40;;;;;;5053560;28;20500;-69
2023/11/18 09:03:42;;;;;;;3.83;2.90;;;20.90;57.40;;;;;;5053220;28;20528;-69
2023/11/18 09:06:18;;;;;;;3.97;2.80;;;20.90;57.40;;;;;;5053409;28;20479;-69
2023/11/18 09:08:54;;;;;;;3.03;2.57;;;20.90;57.40;;;;;;5053281;28;20385;-69
2023/11/18 09:11:22;;;;;;;3.73;2.80;;;20.90;57.40;;;;;;5053135;28;20393;-67
2023/11/18 09:13:53;;;;;;;3.90;2.90;;;20.90;57.40;;;;;;5053485;28;20496;-68
2023/11/18 09:16:22;;;;;;;4.37;2.60;;;20.80;57.30;;;;;;5051753;28;20464;-69
2023/11/18 09:18:48;;;;;;;3.10;2.60;;;20.80;57.90;;;;;;5052482;28;20443;-69
2023/11/18 09:21:21;;;;;;;4.13;3.10;;;20.80;57.30;;;;;;5052425;28;20420;-68
2023/11/18 09:23:48;;;;;;;4.50;2.70;;;20.80;57.40;;;;;;5053669;28;20910;-69
2023/11/18 09:26:14;;;;;;;3.43;2.87;;;20.90;57.50;;;;;;5053145;28;20421;-67
2023/11/18 09:28:40;;;;;;;3.10;2.67;;;20.90;57.50;;;;;;5053960;28;20170;-67
2023/11/18 09:31:11;;;;;;;4.47;2.53;;;20.90;57.50;;;;;;5054249;28;20479;-67
2023/11/18 09:33:39;;;;;;;2.60;2.40;;;20.90;57.50;;;;;;5054601;28;20939;-67
2023/11/18 09:36:07;;;;;;;4.10;2.30;;;20.80;57.50;;;;;;5054118;28;20948;-67
2023/11/18 09:38:40;;;;;;;4.60;2.33;;;20.80;57.50;;;;;;5053723;28;21114;-67
2023/11/18 09:41:10;;;;;;;3.00;2.70;;;20.90;57.50;;;;;;5054684;28;20398;-67
2023/11/18 09:43:45;;;;;;;6.00;2.90;;;20.80;57.40;;;;;;5053943;28;20441;-65
2023/11/18 09:46:14;;;;;;;3.30;2.50;;;20.80;57.50;;;;;;5053915;28;20450;-67
2023/11/18 09:48:59;;;;;;;2.60;2.40;;;20.90;57.50;;;;;;5054323;28;20460;-67
2023/11/18 09:51:30;;;;;;;3.20;2.80;;;20.80;57.50;;;;;;5049764;28;20423;-67
2023/11/18 09:54:00;;;;;;;2.63;2.43;;;20.80;57.50;;;;;;5050577;28;20425;-67
2023/11/18 09:56:45;;;;;;;3.77;2.40;;;20.80;57.50;;;;;;5052637;28;20455;-67
2023/11/18 09:59:23;;;;;;;3.00;2.53;;;20.80;57.50;;;;;;5052778;28;20386;-68
2023/11/18 10:01:53;;;;;;;2.57;2.37;;;20.80;57.50;;;;;;5054199;28;20451;-66
2023/11/18 10:04:20;;;;;;;2.87;2.17;;;20.80;57.50;;;;;;5052958;28;20440;-65
2023/11/18 10:06:53;;;;;;;3.40;2.60;;;20.80;57.50;;;;;;5053051;28;20507;-68
2023/11/18 10:09:28;;;;;;;3.40;2.87;;;20.80;57.50;;;;;;5053555;28;20390;-67
2023/11/18 10:12:00;;;;;;;5.17;2.77;;;20.80;57.50;;;;;;5053654;28;21106;-67
2023/11/18 10:14:26;;;;;;;4.07;2.10;;;20.80;57.50;;;;;;5053347;28;20480;-68
2023/11/18 10:16:53;;;;;;;3.83;2.90;;;20.80;57.50;;;;;;5052240;28;20487;-68
2023/11/18 10:19:19;;;;;;;3.17;2.87;;;20.80;57.50;;;;;;5052389;28;20512;-69
2023/11/18 10:21:48;;;;;;;7.13;2.90;;;20.80;57.40;;;;;;5052148;28;20540;-67
2023/11/18 10:24:14;;;;;;;3.20;2.47;;;20.80;57.40;;;;;;5052103;28;20537;-68
2023/11/18 10:26:45;;;;;;;3.63;2.53;;;20.80;57.50;;;;;;5052023;28;20455;-68
2023/11/18 10:29:13;;;;;;;3.63;2.50;;;20.80;57.50;;;;;;5052053;28;20405;-68
2023/11/18 10:31:45;;;;;;;3.27;2.50;;;20.80;57.50;;;;;;5052046;28;20916;-69
2023/11/18 10:34:17;;;;;;;4.93;2.97;;;20.80;57.50;;;;;;5053992;28;20797;-70
2023/11/18 10:37:03;;;;;;;4.67;2.70;;;20.80;57.50;;;;;;5051665;28;20438;-74
2023/11/18 10:39:32;;;;;;;3.00;2.70;;;20.80;57.50;;;;;;5051393;28;20892;-71
2023/11/18 10:42:01;;;;;;;3.13;2.73;;;20.80;57.50;;;;;;5034085;28;20462;-71
2023/11/18 10:44:29;;;;;;;5.53;2.73;;;20.80;57.50;;;;;;5031154;28;20874;-68
2023/11/18 10:46:58;;;;;;;2.70;2.50;;;20.80;57.60;;;;;;5028652;28;20422;-69
2023/11/18 10:49:27;;;;;;;3.93;2.57;;;20.80;57.50;;;;;;5030312;28;20499;-69
2023/11/18 10:51:55;;;;;;;2.40;2.20;;;20.80;57.50;;;;;;5030526;28;20411;-71
2023/11/18 10:54:21;;;;;;;3.00;2.23;;;20.80;57.60;;;;;;5033115;28;20936;-73
2023/11/18 10:56:50;;;;;;;3.03;2.57;;;20.80;57.60;;;;;;5031776;28;20438;-72
2023/11/18 10:59:16;;;;;;;4.10;2.57;;;20.80;57.60;;;;;;5032133;28;20425;-69
2023/11/18 11:01:43;;;;;;;3.07;2.67;;;20.80;57.60;;;;;;5029691;28;20473;-69
2023/11/18 11:04:10;;;;;;;2.80;2.60;;;20.80;57.50;;;;;;5047147;28;20506;-68
2023/11/18 11:06:51;;;;;;;2.60;2.40;;;20.80;57.50;;;;;;5048933;28;20449;-72
2023/11/18 11:09:18;;;;;;;3.30;2.57;;;20.80;57.60;;;;;;5051591;28;20769;-70
2023/11/18 11:11:55;;;;;;;3.07;2.50;;;20.80;57.50;;;;;;5050494;28;20486;-73
2023/11/18 11:14:24;;;;;;;3.20;2.90;;;20.80;57.50;;;;;;5051582;28;20401;-72
2023/11/18 11:16:54;;;;;;;5.57;2.73;;;20.80;57.50;;;;;;5051425;28;20437;-71
2023/11/18 11:19:33;;;;;;;3.60;2.50;;;20.80;57.50;;;;;;5051145;28;20456;-71
2023/11/18 11:22:12;;;;;;;2.83;2.20;;;20.80;57.50;;;;;;5052025;28;20441;-67
2023/11/18 11:24:43;;;;;;;3.20;2.90;;;20.80;57.50;;;;;;5052298;28;20439;-70
2023/11/18 11:27:39;;;;;;;3.40;2.87;;;20.80;57.50;;;;;;5051420;28;20457;-66
2023/11/18 11:30:22;;;;;;;3.10;2.70;;;20.80;57.40;;;;;;5043728;28;20479;-66
2023/11/18 11:33:22;;;;;;;3.17;2.87;;;20.80;57.50;;;;;;5050868;28;20508;-67
2023/11/18 11:35:55;;;;;;;3.73;2.30;;;20.80;57.40;;;;;;5029615;28;21100;-68
2023/11/18 11:38:22;;;;;;;3.30;2.60;;;20.80;57.50;;;;;;5041264;28;20425;-67
2023/11/18 11:40:49;;;;;;;4.17;2.77;;;20.80;57.50;;;;;;5054497;28;20413;-68
2023/11/18 11:43:21;;;;;;;3.70;2.50;;;20.80;57.50;;;;;;5054877;28;20535;-67
2023/11/18 11:45:49;;;;;;;4.53;2.63;;;20.80;57.50;;;;;;5046705;28;20955;-68
2023/11/18 11:48:36;;;;;;;2.67;2.40;;;20.80;57.50;;;;;;5054326;28;20425;-67
2023/11/18 11:51:29;;;;;;;3.30;2.40;;;20.80;57.60;;;;;;5054252;28;20451;-68
2023/11/18 11:54:15;;;;;;;3.90;2.00;;;20.80;57.50;;;;;;5054400;28;20942;-67
2023/11/18 11:56:46;;;;;;;4.60;2.43;;;20.80;57.60;;;;;;5033045;28;20452;-67
2023/11/18 11:59:15;;;;;;;3.80;2.27;;;20.80;57.60;;;;;;5032793;28;20399;-68
2023/11/18 12:01:46;;;;;;;5.30;2.47;;;20.80;57.60;;;;;;5032693;28;20465;-67
2023/11/18 12:04:20;;;;;;;3.27;2.47;;;20.80;57.60;;;;;;5032731;28;20391;-68
2023/11/18 12:06:47;;;;;;;3.47;2.40;;;20.80;57.60;;;;;;5033070;28;20495;-68
2023/11/18 12:09:19;;;;;;;2.83;2.53;;;20.80;57.60;;;;;;5034171;28;20442;-68
2023/11/18 12:11:48;;;;;;;3.17;2.20;;;20.80;57.60;;;;;;5034297;28;20391;-67
2023/11/18 12:14:41;;;;;;;2.07;1.87;;;20.80;57.60;;;;;;5034313;28;20453;-68
2023/11/18 12:19:46;;;;;;;2.17;1.97;;;20.80;57.60;;;;;;5034651;28;20402;-68
2023/11/18 12:22:25;;;;;;;5.30;2.33;;;20.80;57.60;;;;;;5034236;28;20476;-67
2023/11/18 12:24:57;;;;;;;3.17;2.87;;;20.80;57.60;;;;;;5033791;28;20490;-67
2023/11/18 12:27:51;;;;;;;2.60;2.10;;;20.80;57.70;;;;;;5034049;28;20886;-67
2023/11/18 12:30:18;;;;;;;4.47;2.80;;;20.80;57.70;;;;;;5033732;28;20426;-67
2023/11/18 12:33:10;;;;;;;4.23;2.57;;;20.80;57.70;;;;;;5040738;28;20991;-68
2023/11/18 12:36:07;;;;;;;3.10;2.23;;;20.80;57.70;;;;;;5052998;28;20417;-68
2023/11/18 12:38:57;;;;;;;2.47;2.07;;;20.80;57.70;;;;;;5039884;28;20449;-68
2023/11/18 12:41:39;;;;;;;2.83;2.43;;;20.80;57.70;;;;;;5053018;28;20426;-68
2023/11/18 12:44:35;;;;;;;2.70;2.03;;;20.70;57.70;;;;;;5038356;28;20440;-67
2023/11/18 12:47:14;;;;;;;2.60;2.20;;;20.80;57.70;;;;;;5032619;28;20450;-70
2023/11/18 12:49:43;;;;;;;2.50;2.30;;;20.70;57.70;;;;;;5034858;28;20387;-68
2023/11/18 12:52:10;;;;;;;2.77;2.30;;;20.70;57.70;;;;;;5034002;28;20417;-68
2023/11/18 12:54:43;;;;;;;2.33;2.13;;;20.70;57.70;;;;;;5034072;28;20447;-69
2023/11/18 12:57:15;;;;;;;6.50;2.50;;;20.70;57.70;;;;;;5033882;28;20488;-69
2023/11/18 12:59:41;;;;;;;4.50;2.00;;;20.70;57.70;;;;;;5034083;28;20387;-68
2023/11/18 13:02:18;;;;;;;2.70;2.20;;;20.80;57.80;;;;;;5034116;28;21039;-69